Time;durP1;ratioP1;P1;durP2;ratioP2;P2;SDS_P1;SDS_P2;PMS_P1;PMS_P2;Temp;Humidity;BMP_temperature;BMP_pressure;BME280_temperature;BME280_humidity;BME280_pressure;Samples;Min_cycle;Max_cycle;Signal;HPM_P1;HPM_P2
2023/05/01 00:00:48;;;;;;;0.60;0.60;;;;;;;;;;5099395;28;20182;-85
2023/05/01 00:03:16;;;;;;;0.60;0.60;;;;;;;;;;5100421;28;20208;-84
2023/05/01 00:05:43;;;;;;;0.60;0.60;;;;;;;;;;5102275;28;20177;-84
2023/05/01 00:08:09;;;;;;;0.70;0.70;;;;;;;;;;5105438;28;20189;-83
2023/05/01 00:10:35;;;;;;;0.70;0.70;;;;;;;;;;5118109;28;20265;-84
2023/05/01 00:13:02;;;;;;;0.67;0.67;;;;;;;;;;5117811;28;20235;-84
2023/05/01 00:15:28;;;;;;;0.50;0.50;;;;;;;;;;5117151;28;20198;-83
2023/05/01 00:17:54;;;;;;;0.80;0.80;;;;;;;;;;5098729;28;20203;-84
2023/05/01 00:20:21;;;;;;;0.70;0.70;;;;;;;;;;5097179;28;20178;-83
2023/05/01 00:22:47;;;;;;;0.70;0.70;;;;;;;;;;5097452;28;20180;-83
2023/05/01 00:25:13;;;;;;;0.70;0.70;;;;;;;;;;5097934;28;20289;-83
2023/05/01 00:27:39;;;;;;;0.67;0.67;;;;;;;;;;5115598;28;20164;-83
2023/05/01 00:30:06;;;;;;;0.70;0.70;;;;;;;;;;5119106;28;20214;-82
2023/05/01 00:32:33;;;;;;;0.70;0.70;;;;;;;;;;5118263;28;20188;-83
2023/05/01 00:34:59;;;;;;;0.70;0.70;;;;;;;;;;5116701;28;20202;-83
2023/05/01 00:37:25;;;;;;;0.70;0.70;;;;;;;;;;5098064;28;20181;-83
2023/05/01 00:39:51;;;;;;;0.70;0.70;;;;;;;;;;5099009;28;20174;-83
2023/05/01 00:42:17;;;;;;;0.60;0.60;;;;;;;;;;5097734;28;20597;-83
2023/05/01 00:44:43;;;;;;;0.60;0.60;;;;;;;;;;5107046;28;20202;-83
2023/05/01 00:47:09;;;;;;;0.70;0.70;;;;;;;;;;5118467;28;20162;-83
2023/05/01 00:49:35;;;;;;;0.70;0.70;;;;;;;;;;5118449;28;20165;-83
2023/05/01 00:52:01;;;;;;;0.60;0.60;;;;;;;;;;5118926;28;20166;-82
2023/05/01 00:54:27;;;;;;;0.70;0.70;;;;;;;;;;5118144;28;20200;-82
2023/05/01 00:56:54;;;;;;;0.70;0.70;;;;;;;;;;5101325;28;20182;-83
2023/05/01 00:59:20;;;;;;;0.67;0.67;;;;;;;;;;5100024;28;20231;-84
2023/05/01 01:01:46;;;;;;;0.80;0.80;;;;;;;;;;5101650;28;20181;-83
2023/05/01 01:04:12;;;;;;;0.80;0.80;;;;;;;;;;5102237;28;20198;-84
2023/05/01 01:06:38;;;;;;;0.80;0.80;;;;;;;;;;5102205;28;20182;-84
2023/05/01 01:09:10;;;;;;;0.70;0.70;;;;;;;;;;5103169;28;20637;-83
2023/05/01 01:11:55;;;;;;;0.70;0.70;;;;;;;;;;5100224;28;20217;-83
2023/05/01 01:14:24;;;;;;;0.67;0.67;;;;;;;;;;5095962;28;20288;-84
2023/05/01 01:16:50;;;;;;;0.70;0.70;;;;;;;;;;5096235;28;20201;-84
2023/05/01 01:19:45;;;;;;;0.80;0.80;;;;;;;;;;5096285;28;20181;-83
2023/05/01 01:22:13;;;;;;;0.63;0.63;;;;;;;;;;5097544;28;20254;-83
2023/05/01 01:24:39;;;;;;;0.60;0.60;;;;;;;;;;5097267;28;20194;-85
2023/05/01 01:27:23;;;;;;;0.67;0.67;;;;;;;;;;5097991;28;20176;-84
2023/05/01 01:30:01;;;;;;;0.70;0.70;;;;;;;;;;5096600;28;20608;-84
2023/05/01 01:32:51;;;;;;;0.80;0.80;;;;;;;;;;5095854;28;20173;-84
2023/05/01 01:35:19;;;;;;;0.70;0.70;;;;;;;;;;5096840;28;20185;-84
2023/05/01 01:38:02;;;;;;;0.70;0.70;;;;;;;;;;5096661;28;20205;-84
2023/05/01 01:40:37;;;;;;;0.70;0.70;;;;;;;;;;5097189;28;20178;-84
2023/05/01 01:43:07;;;;;;;0.70;0.70;;;;;;;;;;5096849;28;20169;-84
2023/05/01 01:45:40;;;;;;;0.60;0.60;;;;;;;;;;5097210;28;20679;-84
2023/05/01 01:48:08;;;;;;;0.67;0.67;;;;;;;;;;5097209;28;20173;-84
2023/05/01 01:50:36;;;;;;;0.60;0.60;;;;;;;;;;5096724;28;20228;-84
2023/05/01 01:53:04;;;;;;;0.67;0.67;;;;;;;;;;5096438;28;20613;-83
2023/05/01 01:55:32;;;;;;;0.80;0.80;;;;;;;;;;5098330;28;20262;-83
2023/05/01 01:57:59;;;;;;;0.50;0.50;;;;;;;;;;5102368;28;20191;-82
2023/05/01 02:00:25;;;;;;;0.70;0.70;;;;;;;;;;5102515;28;20204;-83
2023/05/01 02:02:52;;;;;;;0.70;0.70;;;;;;;;;;5095412;28;20200;-83
2023/05/01 02:05:18;;;;;;;0.67;0.67;;;;;;;;;;5094501;28;20193;-83
2023/05/01 02:07:48;;;;;;;0.70;0.70;;;;;;;;;;5095233;28;20181;-84
2023/05/01 02:10:15;;;;;;;0.60;0.60;;;;;;;;;;5094795;28;20280;-84
2023/05/01 02:12:42;;;;;;;0.63;0.63;;;;;;;;;;5095590;28;20181;-83
2023/05/01 02:15:10;;;;;;;0.77;0.77;;;;;;;;;;5095229;28;20190;-84
2023/05/01 02:17:36;;;;;;;0.63;0.63;;;;;;;;;;5095827;28;20188;-84
2023/05/01 02:20:04;;;;;;;0.70;0.70;;;;;;;;;;5095813;28;20305;-83
2023/05/01 02:22:30;;;;;;;0.70;0.70;;;;;;;;;;5095493;28;20189;-84
2023/05/01 02:24:58;;;;;;;0.80;0.80;;;;;;;;;;5095598;28;20228;-84
2023/05/01 02:27:29;;;;;;;0.80;0.80;;;;;;;;;;5095458;28;20177;-83
2023/05/01 02:29:56;;;;;;;0.60;0.60;;;;;;;;;;5096669;28;20241;-84
2023/05/01 02:32:22;;;;;;;0.70;0.70;;;;;;;;;;5095812;28;20209;-85
2023/05/01 02:34:48;;;;;;;0.60;0.60;;;;;;;;;;5096757;28;20280;-84
2023/05/01 02:37:14;;;;;;;0.63;0.63;;;;;;;;;;5096010;28;20173;-84
2023/05/01 02:39:40;;;;;;;0.70;0.70;;;;;;;;;;5097001;28;20188;-85
2023/05/01 02:42:08;;;;;;;0.60;0.60;;;;;;;;;;5078747;28;20179;-84
2023/05/01 02:44:43;;;;;;;0.70;0.70;;;;;;;;;;5097043;28;20223;-84
2023/05/01 02:47:10;;;;;;;0.70;0.70;;;;;;;;;;5111499;28;20177;-83
2023/05/01 02:49:37;;;;;;;0.70;0.70;;;;;;;;;;5205048;22;20252;-82
2023/05/01 02:52:04;;;;;;;0.60;0.60;;;;;;;;;;5116988;28;20667;-81
2023/05/01 02:54:30;;;;;;;0.60;0.60;;;;;;;;;;5116887;28;20593;-82
2023/05/01 02:56:58;;;;;;;0.70;0.70;;;;;;;;;;5117564;28;20177;-83
2023/05/01 02:59:24;;;;;;;0.70;0.70;;;;;;;;;;5118267;28;20177;-83
2023/05/01 03:01:50;;;;;;;0.80;0.80;;;;;;;;;;5119031;28;20200;-83
2023/05/01 03:04:16;;;;;;;0.70;0.70;;;;;;;;;;5117509;28;20667;-83
2023/05/01 03:06:43;;;;;;;0.70;0.70;;;;;;;;;;5117385;28;20181;-81
2023/05/01 03:09:10;;;;;;;0.70;0.70;;;;;;;;;;5117217;28;20631;-80
2023/05/01 03:11:36;;;;;;;0.70;0.70;;;;;;;;;;5118088;28;20217;-81
2023/05/01 03:14:02;;;;;;;0.73;0.73;;;;;;;;;;5117358;28;20193;-80
2023/05/01 03:16:28;;;;;;;0.80;0.80;;;;;;;;;;5118531;28;20211;-81
2023/05/01 03:18:54;;;;;;;0.60;0.60;;;;;;;;;;5121450;28;20298;-81
2023/05/01 03:21:21;;;;;;;0.70;0.70;;;;;;;;;;5121571;28;20189;-80
2023/05/01 03:23:47;;;;;;;0.70;0.70;;;;;;;;;;5119934;28;20212;-81
2023/05/01 03:26:13;;;;;;;0.60;0.60;;;;;;;;;;5120070;27;20245;-81
2023/05/01 03:28:39;;;;;;;0.70;0.70;;;;;;;;;;5120607;28;20169;-81
2023/05/01 03:31:05;;;;;;;0.60;0.60;;;;;;;;;;5120330;28;20687;-81
2023/05/01 03:33:31;;;;;;;0.70;0.70;;;;;;;;;;5120489;28;20227;-81
2023/05/01 03:36:04;;;;;;;0.60;0.60;;;;;;;;;;5120697;28;20185;-81
2023/05/01 03:38:31;;;;;;;0.60;0.60;;;;;;;;;;5121387;28;20176;-81
2023/05/01 03:40:57;;;;;;;0.70;0.70;;;;;;;;;;5121619;28;20201;-81
2023/05/01 03:43:23;;;;;;;0.63;0.63;;;;;;;;;;5121164;28;20171;-81
2023/05/01 03:45:50;;;;;;;0.67;0.67;;;;;;;;;;5121493;28;20655;-81
2023/05/01 03:48:16;;;;;;;0.60;0.60;;;;;;;;;;5122248;28;20196;-82
2023/05/01 03:50:42;;;;;;;0.60;0.60;;;;;;;;;;5121872;28;20307;-81
2023/05/01 03:53:08;;;;;;;0.60;0.60;;;;;;;;;;5123240;28;20173;-81
2023/05/01 03:55:34;;;;;;;0.60;0.60;;;;;;;;;;5122557;28;20173;-80
2023/05/01 03:58:00;;;;;;;0.60;0.60;;;;;;;;;;5122595;28;20207;-81
2023/05/01 04:00:26;;;;;;;0.70;0.70;;;;;;;;;;5122197;28;20177;-80
2023/05/01 04:02:52;;;;;;;0.50;0.50;;;;;;;;;;5121768;28;20231;-81
2023/05/01 04:05:20;;;;;;;0.50;0.50;;;;;;;;;;5121959;28;20645;-81
2023/05/01 04:07:46;;;;;;;0.70;0.70;;;;;;;;;;5120957;28;20185;-81
2023/05/01 04:10:12;;;;;;;0.70;0.70;;;;;;;;;;5121217;28;20209;-80
2023/05/01 04:12:38;;;;;;;0.63;0.63;;;;;;;;;;5120511;27;20180;-80
2023/05/01 04:15:04;;;;;;;0.60;0.60;;;;;;;;;;5121128;28;20219;-81
2023/05/01 04:17:31;;;;;;;0.60;0.60;;;;;;;;;;5120673;28;20276;-81
2023/05/01 04:19:57;;;;;;;0.60;0.60;;;;;;;;;;5119306;28;20264;-80
2023/05/01 04:22:23;;;;;;;0.60;0.60;;;;;;;;;;5117489;28;20607;-81
2023/05/01 04:24:50;;;;;;;0.70;0.70;;;;;;;;;;5117910;28;20262;-80
2023/05/01 04:27:16;;;;;;;0.53;0.53;;;;;;;;;;5117564;28;20178;-81
2023/05/01 04:29:42;;;;;;;0.70;0.70;;;;;;;;;;5116536;28;20200;-81
2023/05/01 04:32:08;;;;;;;0.50;0.50;;;;;;;;;;5117448;28;20245;-81
2023/05/01 04:34:34;;;;;;;0.70;0.70;;;;;;;;;;5117958;28;20672;-81
2023/05/01 04:37:01;;;;;;;0.70;0.70;;;;;;;;;;5138725;28;20165;-80
2023/05/01 04:39:27;;;;;;;0.60;0.60;;;;;;;;;;5128611;28;20170;-80
2023/05/01 04:41:53;;;;;;;0.60;0.60;;;;;;;;;;5114346;28;20301;-80
2023/05/01 04:44:19;;;;;;;0.70;0.70;;;;;;;;;;5114066;27;20197;-81
2023/05/01 04:46:45;;;;;;;0.70;0.70;;;;;;;;;;5119658;28;20181;-81
2023/05/01 04:49:11;;;;;;;0.70;0.70;;;;;;;;;;5118910;28;20173;-81
2023/05/01 04:51:37;;;;;;;0.70;0.70;;;;;;;;;;5119116;28;20224;-81
2023/05/01 04:54:03;;;;;;;0.60;0.60;;;;;;;;;;5118515;28;20282;-81
2023/05/01 04:56:29;;;;;;;0.60;0.60;;;;;;;;;;5118857;28;20253;-80
2023/05/01 04:58:55;;;;;;;0.50;0.50;;;;;;;;;;5118831;28;20198;-81
2023/05/01 05:01:22;;;;;;;0.80;0.80;;;;;;;;;;5119242;28;20293;-81
2023/05/01 05:03:48;;;;;;;0.60;0.60;;;;;;;;;;5118821;28;20268;-81
2023/05/01 05:06:14;;;;;;;0.70;0.70;;;;;;;;;;5118918;28;20200;-81
2023/05/01 05:08:40;;;;;;;0.50;0.50;;;;;;;;;;5118774;28;20246;-81
2023/05/01 05:11:06;;;;;;;0.50;0.50;;;;;;;;;;5119399;28;20618;-82
2023/05/01 05:13:32;;;;;;;0.70;0.70;;;;;;;;;;5118272;28;20189;-82
2023/05/01 05:15:58;;;;;;;0.70;0.70;;;;;;;;;;5118431;28;20185;-81
2023/05/01 05:18:24;;;;;;;0.60;0.60;;;;;;;;;;5118406;28;20192;-81
2023/05/01 05:20:50;;;;;;;0.60;0.60;;;;;;;;;;5119411;28;20176;-81
2023/05/01 05:23:16;;;;;;;0.70;0.70;;;;;;;;;;5119130;28;20660;-81
2023/05/01 05:25:42;;;;;;;0.70;0.70;;;;;;;;;;5119806;28;20200;-81
2023/05/01 05:28:08;;;;;;;0.53;0.53;;;;;;;;;;5119151;28;20176;-81
2023/05/01 05:30:34;;;;;;;0.63;0.63;;;;;;;;;;5120004;28;20209;-82
2023/05/01 05:33:00;;;;;;;0.60;0.60;;;;;;;;;;5118870;27;20176;-81
2023/05/01 05:35:26;;;;;;;0.67;0.67;;;;;;;;;;5119335;28;20193;-81
2023/05/01 05:37:53;;;;;;;0.70;0.70;;;;;;;;;;5117388;28;20184;-82
2023/05/01 05:40:19;;;;;;;0.67;0.67;;;;;;;;;;5116244;28;20177;-81
2023/05/01 05:42:45;;;;;;;0.60;0.60;;;;;;;;;;5116357;28;20640;-81
2023/05/01 05:45:11;;;;;;;0.70;0.70;;;;;;;;;;5116535;28;20342;-82
2023/05/01 05:47:37;;;;;;;0.50;0.50;;;;;;;;;;5116741;28;20539;-82
2023/05/01 05:50:03;;;;;;;0.60;0.60;;;;;;;;;;5117498;28;20284;-81
2023/05/01 05:52:29;;;;;;;0.50;0.50;;;;;;;;;;5117141;28;20283;-82
2023/05/01 05:54:55;;;;;;;0.67;0.67;;;;;;;;;;5117342;28;20302;-82
2023/05/01 05:57:21;;;;;;;0.70;0.70;;;;;;;;;;5117063;28;20197;-81
2023/05/01 05:59:47;;;;;;;0.60;0.60;;;;;;;;;;5117591;28;20202;-81
2023/05/01 06:02:13;;;;;;;0.70;0.70;;;;;;;;;;5116667;28;20686;-81
2023/05/01 06:04:39;;;;;;;0.60;0.60;;;;;;;;;;5115921;28;20204;-82
2023/05/01 06:07:05;;;;;;;0.63;0.63;;;;;;;;;;5115940;28;20181;-82
2023/05/01 06:09:32;;;;;;;0.60;0.60;;;;;;;;;;5116024;28;20179;-82
2023/05/01 06:11:58;;;;;;;0.60;0.60;;;;;;;;;;5115728;28;20271;-81
2023/05/01 06:14:24;;;;;;;0.60;0.60;;;;;;;;;;5116625;28;20204;-82
2023/05/01 06:16:50;;;;;;;0.60;0.60;;;;;;;;;;5116491;28;20177;-81
2023/05/01 06:19:16;;;;;;;0.53;0.53;;;;;;;;;;5117047;28;20632;-81
2023/05/01 06:21:42;;;;;;;0.50;0.50;;;;;;;;;;5117282;28;20175;-82
2023/05/01 06:24:08;;;;;;;0.57;0.57;;;;;;;;;;5116320;28;20679;-81
2023/05/01 06:26:34;;;;;;;0.60;0.60;;;;;;;;;;5116799;28;20382;-81
2023/05/01 06:29:00;;;;;;;0.60;0.60;;;;;;;;;;5109292;28;20182;-81
2023/05/01 06:31:26;;;;;;;0.50;0.50;;;;;;;;;;5112811;28;20605;-82
2023/05/01 06:33:52;;;;;;;0.50;0.50;;;;;;;;;;5109864;28;20676;-82
2023/05/01 06:36:18;;;;;;;0.53;0.53;;;;;;;;;;5110713;28;20554;-80
2023/05/01 06:38:47;;;;;;;0.70;0.70;;;;;;;;;;5111380;28;20173;-82
2023/05/01 06:41:13;;;;;;;0.50;0.50;;;;;;;;;;5103722;28;20614;-82
2023/05/01 06:43:39;;;;;;;0.60;0.60;;;;;;;;;;5106567;28;20204;-82
2023/05/01 06:46:05;;;;;;;0.50;0.50;;;;;;;;;;5113000;28;20173;-81
2023/05/01 06:48:31;;;;;;;0.60;0.60;;;;;;;;;;5106773;28;20188;-81
2023/05/01 06:50:57;;;;;;;0.50;0.50;;;;;;;;;;5100268;28;20267;-82
2023/05/01 06:53:23;;;;;;;0.60;0.60;;;;;;;;;;5099913;28;20550;-82
2023/05/01 06:55:50;;;;;;;0.50;0.50;;;;;;;;;;5100379;28;20694;-82
2023/05/01 06:58:16;;;;;;;0.60;0.60;;;;;;;;;;5100252;28;20178;-82
2023/05/01 07:00:42;;;;;;;0.40;0.40;;;;;;;;;;5099742;28;20277;-83
2023/05/01 07:03:08;;;;;;;0.57;0.57;;;;;;;;;;5099655;28;20185;-82
2023/05/01 07:05:34;;;;;;;0.60;0.60;;;;;;;;;;5100112;28;20161;-81
2023/05/01 07:08:00;;;;;;;0.50;0.50;;;;;;;;;;5099286;28;20173;-81
2023/05/01 07:10:26;;;;;;;0.70;0.70;;;;;;;;;;5098614;28;20273;-81
2023/05/01 07:12:52;;;;;;;0.50;0.50;;;;;;;;;;5097675;28;20174;-81
2023/05/01 07:15:18;;;;;;;0.70;0.70;;;;;;;;;;5096846;28;20293;-82
2023/05/01 07:17:45;;;;;;;0.57;0.57;;;;;;;;;;5098890;28;20173;-80
2023/05/01 07:20:12;;;;;;;0.50;0.50;;;;;;;;;;5098929;28;20182;-81
2023/05/01 07:22:38;;;;;;;0.50;0.50;;;;;;;;;;5098182;28;20177;-80
2023/05/01 07:25:04;;;;;;;0.50;0.50;;;;;;;;;;5103860;28;20189;-81
2023/05/01 07:27:30;;;;;;;0.50;0.50;;;;;;;;;;5109425;28;20178;-81
2023/05/01 07:29:56;;;;;;;0.60;0.60;;;;;;;;;;5110018;28;20561;-81
2023/05/01 07:32:22;;;;;;;0.50;0.50;;;;;;;;;;5100696;28;20188;-81
2023/05/01 07:34:48;;;;;;;0.57;0.57;;;;;;;;;;5101648;28;20285;-81
2023/05/01 07:37:15;;;;;;;0.60;0.60;;;;;;;;;;5100954;28;20209;-81
2023/05/01 07:39:41;;;;;;;0.50;0.50;;;;;;;;;;5101071;28;20174;-81
2023/05/01 07:42:07;;;;;;;0.50;0.50;;;;;;;;;;5101252;28;20181;-81
2023/05/01 07:44:33;;;;;;;0.60;0.60;;;;;;;;;;5119458;28;20201;-81
2023/05/01 07:47:02;;;;;;;0.60;0.60;;;;;;;;;;5121595;27;20177;-81
2023/05/01 07:49:29;;;;;;;0.70;0.70;;;;;;;;;;5120453;28;20197;-81
2023/05/01 07:51:55;;;;;;;0.50;0.50;;;;;;;;;;5120314;28;20224;-80
2023/05/01 07:54:21;;;;;;;0.60;0.60;;;;;;;;;;5120113;28;20200;-81
2023/05/01 07:56:47;;;;;;;0.50;0.50;;;;;;;;;;5120202;28;20282;-82
2023/05/01 07:59:15;;;;;;;0.50;0.50;;;;;;;;;;5120560;28;20170;-80
2023/05/01 08:01:41;;;;;;;0.57;0.57;;;;;;;;;;5120118;28;20569;-80
2023/05/01 08:04:07;;;;;;;0.50;0.50;;;;;;;;;;5118802;28;20811;-81
2023/05/01 08:06:33;;;;;;;0.50;0.50;;;;;;;;;;5119979;28;20185;-80
2023/05/01 08:08:59;;;;;;;0.50;0.50;;;;;;;;;;5121026;28;20247;-81
2023/05/01 08:11:25;;;;;;;0.60;0.60;;;;;;;;;;5120120;28;20212;-81
2023/05/01 08:13:52;;;;;;;0.53;0.53;;;;;;;;;;5119735;28;20668;-81
2023/05/01 08:16:18;;;;;;;0.60;0.60;;;;;;;;;;5119602;28;20685;-80
2023/05/01 08:18:45;;;;;;;0.50;0.50;;;;;;;;;;5122373;28;20173;-79
2023/05/01 08:21:11;;;;;;;0.50;0.50;;;;;;;;;;5120473;28;20174;-80
2023/05/01 08:23:37;;;;;;;0.50;0.50;;;;;;;;;;5120694;28;20561;-81
2023/05/01 08:26:03;;;;;;;0.60;0.60;;;;;;;;;;5122258;28;20188;-81
2023/05/01 08:28:29;;;;;;;0.40;0.40;;;;;;;;;;5120021;28;20185;-80
2023/05/01 08:30:55;;;;;;;0.50;0.50;;;;;;;;;;5120137;28;20223;-81
2023/05/01 08:33:21;;;;;;;0.50;0.50;;;;;;;;;;5119825;28;20173;-80
2023/05/01 08:35:48;;;;;;;0.50;0.50;;;;;;;;;;5119872;28;20237;-80
2023/05/01 08:38:14;;;;;;;0.50;0.50;;;;;;;;;;5120576;28;20719;-79
2023/05/01 08:40:40;;;;;;;0.50;0.50;;;;;;;;;;5119045;28;20205;-80
2023/05/01 08:43:07;;;;;;;0.50;0.50;;;;;;;;;;5119314;28;20500;-81
2023/05/01 08:45:34;;;;;;;0.50;0.50;;;;;;;;;;5120701;28;20234;-80
2023/05/01 08:48:02;;;;;;;0.37;0.37;;;;;;;;;;5120822;28;20187;-81
2023/05/01 08:50:28;;;;;;;0.50;0.50;;;;;;;;;;5121043;28;20209;-81
2023/05/01 08:52:57;;;;;;;0.50;0.50;;;;;;;;;;5124331;28;20189;-81
2023/05/01 08:55:23;;;;;;;0.50;0.50;;;;;;;;;;5119647;28;20718;-81
2023/05/01 08:57:50;;;;;;;0.53;0.53;;;;;;;;;;5119902;28;20222;-79
2023/05/01 09:00:20;;;;;;;0.50;0.50;;;;;;;;;;5119504;28;20192;-81
2023/05/01 09:02:47;;;;;;;0.43;0.43;;;;;;;;;;5118099;28;20180;-81
2023/05/01 09:05:17;;;;;;;0.50;0.50;;;;;;;;;;5119646;28;20694;-81
2023/05/01 09:07:44;;;;;;;0.40;0.40;;;;;;;;;;5104097;28;20197;-80
2023/05/01 09:10:11;;;;;;;0.47;0.47;;;;;;;;;;5114584;28;20202;-79
2023/05/01 09:12:38;;;;;;;0.50;0.50;;;;;;;;;;5115744;28;20283;-79
2023/05/01 09:15:06;;;;;;;0.57;0.57;;;;;;;;;;5117278;28;20243;-80
2023/05/01 09:17:32;;;;;;;0.40;0.40;;;;;;;;;;5136234;28;20178;-79
2023/05/01 09:19:58;;;;;;;0.43;0.43;;;;;;;;;;5136365;28;20176;-80
2023/05/01 09:22:25;;;;;;;0.40;0.40;;;;;;;;;;5130180;28;20158;-81
2023/05/01 09:24:51;;;;;;;0.33;0.33;;;;;;;;;;5124085;28;20201;-81
2023/05/01 09:27:18;;;;;;;0.30;0.30;;;;;;;;;;5108466;28;20197;-81
2023/05/01 09:29:45;;;;;;;0.40;0.40;;;;;;;;;;5117213;28;20181;-81
2023/05/01 09:32:15;;;;;;;0.40;0.40;;;;;;;;;;5105287;28;20208;-81
2023/05/01 09:34:42;;;;;;;0.40;0.40;;;;;;;;;;5120032;28;20215;-81
2023/05/01 09:37:08;;;;;;;0.40;0.40;;;;;;;;;;5119591;28;20184;-82
2023/05/01 09:39:34;;;;;;;0.40;0.40;;;;;;;;;;5104613;28;20180;-82
2023/05/01 09:42:01;;;;;;;0.60;0.60;;;;;;;;;;5116607;28;20176;-82
2023/05/01 09:44:27;;;;;;;0.50;0.50;;;;;;;;;;5102928;28;20196;-81
2023/05/01 09:46:54;;;;;;;0.40;0.40;;;;;;;;;;5108680;28;20250;-81
2023/05/01 09:49:20;;;;;;;0.30;0.30;;;;;;;;;;5110967;28;20177;-81
2023/05/01 09:51:46;;;;;;;0.40;0.40;;;;;;;;;;5101925;28;20225;-82
2023/05/01 09:54:18;;;;;;;0.30;0.30;;;;;;;;;;5112889;28;20280;-82
2023/05/01 09:56:47;;;;;;;0.43;0.43;;;;;;;;;;5098576;28;20186;-82
2023/05/01 09:59:15;;;;;;;0.40;0.40;;;;;;;;;;5110983;28;20180;-82
2023/05/01 10:01:42;;;;;;;0.40;0.40;;;;;;;;;;5101261;28;20178;-80
2023/05/01 10:04:08;;;;;;;0.30;0.30;;;;;;;;;;5115461;28;20265;-83
2023/05/01 10:06:35;;;;;;;0.40;0.40;;;;;;;;;;5104483;28;20181;-82
2023/05/01 10:09:02;;;;;;;0.30;0.30;;;;;;;;;;5106279;28;20833;-82
2023/05/01 10:11:28;;;;;;;0.50;0.50;;;;;;;;;;5112345;28;20608;-81
2023/05/01 10:14:09;;;;;;;0.50;0.50;;;;;;;;;;5099709;28;20319;-81
2023/05/01 10:16:36;;;;;;;0.40;0.40;;;;;;;;;;5109224;28;20181;-81
2023/05/01 10:19:03;;;;;;;0.40;0.40;;;;;;;;;;5107168;28;20173;-81
2023/05/01 10:21:30;;;;;;;0.40;0.40;;;;;;;;;;5102202;28;20193;-81
2023/05/01 10:23:56;;;;;;;0.40;0.40;;;;;;;;;;5103670;28;20194;-81
2023/05/01 10:26:25;;;;;;;0.40;0.40;;;;;;;;;;5114190;28;20191;-80
2023/05/01 10:28:51;;;;;;;0.33;0.33;;;;;;;;;;5107459;28;20198;-81
2023/05/01 10:31:17;;;;;;;0.30;0.30;;;;;;;;;;5109778;28;20229;-81
2023/05/01 10:33:44;;;;;;;0.37;0.37;;;;;;;;;;5099344;28;20194;-82
2023/05/01 10:36:21;;;;;;;0.30;0.30;;;;;;;;;;5100820;28;20181;-82
2023/05/01 10:38:47;;;;;;;0.40;0.40;;;;;;;;;;5116654;28;20188;-81
2023/05/01 10:41:15;;;;;;;0.30;0.30;;;;;;;;;;5105019;28;20211;-82
2023/05/01 10:43:41;;;;;;;0.33;0.33;;;;;;;;;;5112663;28;20772;-81
2023/05/01 10:46:07;;;;;;;0.40;0.40;;;;;;;;;;5099655;28;20197;-81
2023/05/01 10:48:39;;;;;;;0.40;0.40;;;;;;;;;;5110698;28;20207;-81
2023/05/01 10:51:19;;;;;;;0.30;0.30;;;;;;;;;;5107355;28;20224;-82
2023/05/01 10:53:46;;;;;;;0.30;0.30;;;;;;;;;;5099101;28;20426;-81
2023/05/01 10:56:24;;;;;;;0.37;0.37;;;;;;;;;;5113268;28;20637;-82
2023/05/01 10:58:53;;;;;;;0.37;0.37;;;;;;;;;;5104699;28;20181;-82
2023/05/01 11:01:31;;;;;;;0.40;0.40;;;;;;;;;;5102631;28;20174;-82
2023/05/01 11:03:58;;;;;;;0.40;0.40;;;;;;;;;;5112367;28;20233;-80
2023/05/01 11:06:24;;;;;;;0.30;0.30;;;;;;;;;;5101732;28;20169;-81
2023/05/01 11:08:50;;;;;;;0.40;0.40;;;;;;;;;;5107073;28;20170;-82
2023/05/01 11:11:22;;;;;;;0.33;0.33;;;;;;;;;;5109356;28;20558;-81
2023/05/01 11:13:58;;;;;;;0.40;0.40;;;;;;;;;;5099548;28;20197;-81
2023/05/01 11:16:51;;;;;;;0.30;0.30;;;;;;;;;;5110532;28;20185;-81
2023/05/01 11:19:22;;;;;;;0.30;0.30;;;;;;;;;;5106020;28;20210;-81
2023/05/01 11:21:49;;;;;;;0.37;0.37;;;;;;;;;;5098471;28;20264;-81
2023/05/01 11:24:18;;;;;;;0.30;0.30;;;;;;;;;;5110577;28;20200;-81
2023/05/01 11:26:45;;;;;;;0.40;0.40;;;;;;;;;;5103100;28;20177;-81
2023/05/01 11:29:11;;;;;;;0.47;0.47;;;;;;;;;;5102867;28;20182;-82
2023/05/01 11:31:38;;;;;;;0.40;0.40;;;;;;;;;;5110215;28;20209;-81
2023/05/01 11:34:07;;;;;;;0.43;0.43;;;;;;;;;;5099377;28;20566;-82
2023/05/01 11:36:49;;;;;;;0.40;0.40;;;;;;;;;;5109123;28;20193;-81
2023/05/01 11:39:16;;;;;;;0.40;0.40;;;;;;;;;;5111403;28;20173;-81
2023/05/01 11:41:42;;;;;;;0.43;0.43;;;;;;;;;;5103110;28;20178;-81
2023/05/01 11:44:11;;;;;;;0.50;0.50;;;;;;;;;;5115524;28;20238;-80
2023/05/01 11:46:37;;;;;;;0.40;0.40;;;;;;;;;;5098617;28;20185;-81
2023/05/01 11:49:03;;;;;;;0.30;0.30;;;;;;;;;;5111128;28;20180;-81
2023/05/01 11:51:30;;;;;;;0.47;0.47;;;;;;;;;;5105017;28;20217;-81
2023/05/01 11:54:00;;;;;;;0.30;0.30;;;;;;;;;;5116064;28;20189;-81
2023/05/01 11:56:26;;;;;;;0.30;0.30;;;;;;;;;;5103900;28;20215;-81
2023/05/01 11:58:56;;;;;;;0.47;0.47;;;;;;;;;;5108255;28;20666;-81
2023/05/01 12:01:32;;;;;;;0.33;0.33;;;;;;;;;;5111978;28;20173;-81
2023/05/01 12:03:58;;;;;;;0.40;0.40;;;;;;;;;;5101710;28;20611;-81
2023/05/01 12:06:35;;;;;;;0.40;0.40;;;;;;;;;;5113718;28;20245;-82
2023/05/01 12:09:01;;;;;;;0.40;0.40;;;;;;;;;;5108357;28;20185;-81
2023/05/01 12:11:27;;;;;;;0.40;0.40;;;;;;;;;;5103569;28;20258;-80
2023/05/01 12:13:53;;;;;;;0.30;0.30;;;;;;;;;;5114531;28;20193;-81
2023/05/01 12:16:19;;;;;;;0.37;0.37;;;;;;;;;;5096767;28;20186;-81
2023/05/01 12:18:47;;;;;;;0.40;0.40;;;;;;;;;;5104781;28;20653;-81
2023/05/01 12:21:15;;;;;;;0.50;0.50;;;;;;;;;;5107325;28;20565;-81
2023/05/01 12:23:41;;;;;;;0.40;0.40;;;;;;;;;;5114992;28;20193;-81
2023/05/01 12:26:24;;;;;;;0.40;0.40;;;;;;;;;;5115197;27;20173;-82
2023/05/01 12:29:04;;;;;;;0.40;0.40;;;;;;;;;;5107345;28;20181;-80
2023/05/01 12:31:30;;;;;;;0.40;0.40;;;;;;;;;;5104345;28;20586;-81
2023/05/01 12:33:57;;;;;;;0.50;0.50;;;;;;;;;;5114286;28;20224;-80
2023/05/01 12:36:24;;;;;;;0.40;0.40;;;;;;;;;;5103878;28;20241;-82
2023/05/01 12:39:09;;;;;;;0.40;0.40;;;;;;;;;;5109473;28;20170;-81
2023/05/01 12:41:38;;;;;;;0.50;0.50;;;;;;;;;;5115381;28;20203;-81
2023/05/01 12:44:17;;;;;;;0.40;0.40;;;;;;;;;;5101562;28;20213;-81
2023/05/01 12:46:44;;;;;;;0.50;0.50;;;;;;;;;;5110283;28;20185;-81
2023/05/01 12:49:15;;;;;;;0.40;0.40;;;;;;;;;;5109232;28;20628;-81
2023/05/01 12:51:45;;;;;;;0.40;0.40;;;;;;;;;;5102633;28;20209;-81
2023/05/01 12:54:13;;;;;;;0.40;0.40;;;;;;;;;;5101046;28;20289;-81
2023/05/01 12:56:39;;;;;;;0.50;0.50;;;;;;;;;;5110039;28;20644;-81
2023/05/01 12:59:05;;;;;;;0.40;0.40;;;;;;;;;;5109719;28;20166;-81
2023/05/01 13:01:31;;;;;;;0.57;0.57;;;;;;;;;;5104812;28;20181;-81
2023/05/01 13:03:57;;;;;;;0.50;0.50;;;;;;;;;;5115011;28;20193;-81
2023/05/01 13:06:32;;;;;;;0.40;0.40;;;;;;;;;;5104040;28;20200;-81
2023/05/01 13:09:06;;;;;;;0.40;0.40;;;;;;;;;;5108378;28;20178;-82
2023/05/01 13:11:32;;;;;;;0.40;0.40;;;;;;;;;;5113757;28;20253;-81
2023/05/01 13:14:06;;;;;;;0.40;0.40;;;;;;;;;;5100701;28;20205;-79
2023/05/01 13:16:32;;;;;;;0.40;0.40;;;;;;;;;;5111681;27;20172;-81
2023/05/01 13:18:58;;;;;;;0.30;0.30;;;;;;;;;;5108633;28;20188;-81
2023/05/01 13:21:25;;;;;;;0.40;0.40;;;;;;;;;;5104394;28;20645;-81
2023/05/01 13:23:56;;;;;;;0.40;0.40;;;;;;;;;;5112377;28;20193;-81
2023/05/01 13:26:30;;;;;;;0.40;0.40;;;;;;;;;;5101931;28;20193;-80
2023/05/01 13:28:57;;;;;;;0.33;0.33;;;;;;;;;;5107794;28;20184;-82
2023/05/01 13:31:23;;;;;;;0.50;0.50;;;;;;;;;;5111215;28;20227;-80
2023/05/01 13:33:50;;;;;;;0.40;0.40;;;;;;;;;;5116845;28;20223;-81
2023/05/01 13:36:16;;;;;;;0.50;0.50;;;;;;;;;;5117330;28;20181;-80
2023/05/01 13:38:45;;;;;;;0.40;0.40;;;;;;;;;;5109295;28;20249;-81
2023/05/01 13:41:18;;;;;;;0.50;0.50;;;;;;;;;;5108948;28;20199;-82
2023/05/01 13:43:44;;;;;;;0.30;0.30;;;;;;;;;;5099032;28;20663;-82
2023/05/01 13:46:14;;;;;;;0.50;0.50;;;;;;;;;;5100324;28;20169;-82
2023/05/01 13:48:40;;;;;;;0.47;0.47;;;;;;;;;;5109020;28;20192;-81
2023/05/01 13:51:07;;;;;;;0.50;0.50;;;;;;;;;;5107748;28;20213;-81
2023/05/01 13:53:33;;;;;;;0.43;0.43;;;;;;;;;;5101476;28;20197;-82
2023/05/01 13:55:59;;;;;;;0.50;0.50;;;;;;;;;;5111822;28;20177;-81
2023/05/01 13:58:28;;;;;;;0.50;0.50;;;;;;;;;;5100340;28;20173;-81
2023/05/01 14:00:54;;;;;;;0.43;0.43;;;;;;;;;;5103492;28;20180;-82
2023/05/01 14:03:20;;;;;;;0.40;0.40;;;;;;;;;;5102054;28;20208;-81
2023/05/01 14:05:47;;;;;;;0.50;0.50;;;;;;;;;;5111546;28;20240;-81
2023/05/01 14:08:14;;;;;;;0.50;0.50;;;;;;;;;;5098336;28;20181;-81
2023/05/01 14:10:40;;;;;;;0.50;0.50;;;;;;;;;;5107771;28;20210;-81
2023/05/01 14:13:06;;;;;;;0.50;0.50;;;;;;;;;;5106002;28;20547;-81
2023/05/01 14:15:36;;;;;;;0.50;0.50;;;;;;;;;;5098377;28;20223;-81
2023/05/01 14:18:05;;;;;;;0.50;0.50;;;;;;;;;;5110615;28;20172;-81
2023/05/01 14:20:31;;;;;;;0.40;0.40;;;;;;;;;;5101818;28;20358;-81
2023/05/01 14:22:58;;;;;;;0.33;0.33;;;;;;;;;;5104369;28;20227;-82
2023/05/01 14:25:34;;;;;;;0.40;0.40;;;;;;;;;;5108216;28;20212;-81
2023/05/01 14:28:04;;;;;;;0.40;0.40;;;;;;;;;;5098063;28;20178;-83
2023/05/01 14:30:36;;;;;;;0.30;0.30;;;;;;;;;;5108894;28;20205;-81
2023/05/01 14:33:02;;;;;;;0.40;0.40;;;;;;;;;;5105091;28;20204;-82
2023/05/01 14:35:29;;;;;;;0.50;0.50;;;;;;;;;;5101432;28;20200;-81
2023/05/01 14:37:55;;;;;;;0.47;0.47;;;;;;;;;;5111677;28;20596;-81
2023/05/01 14:40:29;;;;;;;0.40;0.40;;;;;;;;;;5100182;28;20172;-82
2023/05/01 14:42:57;;;;;;;0.40;0.40;;;;;;;;;;5105247;28;20265;-82
2023/05/01 14:45:23;;;;;;;0.40;0.40;;;;;;;;;;5108288;28;20193;-81